地図

経路データ

SID SEASON NUMBER BASIN SUBBASIN NAME ISO_TIME NATURE LAT LON WMO_WIND WMO_PRES WMO_AGENCY TRACK_TYPE DIST2LAND LANDFALL IFLAG USA_AGENCY USA_ATCF_ID USA_LAT USA_LON USA_RECORD USA_STATUS USA_WIND USA_PRES USA_SSHS USA_R34_NE USA_R34_SE USA_R34_SW USA_R34_NW USA_R50_NE USA_R50_SE USA_R50_SW USA_R50_NW USA_R64_NE USA_R64_SE USA_R64_SW USA_R64_NW USA_POCI USA_ROCI USA_RMW USA_EYE TOKYO_LAT TOKYO_LON TOKYO_GRADE TOKYO_WIND TOKYO_PRES TOKYO_R50_DIR TOKYO_R50_LONG TOKYO_R50_SHORT TOKYO_R30_DIR TOKYO_R30_LONG TOKYO_R30_SHORT TOKYO_LAND CMA_LAT CMA_LON CMA_CAT CMA_WIND CMA_PRES HKO_LAT HKO_LON HKO_CAT HKO_WIND HKO_PRES NEWDELHI_LAT NEWDELHI_LON NEWDELHI_GRADE NEWDELHI_WIND NEWDELHI_PRES NEWDELHI_CI NEWDELHI_DP NEWDELHI_POCI REUNION_LAT REUNION_LON REUNION_TYPE REUNION_WIND REUNION_PRES REUNION_TNUM REUNION_CI REUNION_RMW REUNION_R34_NE REUNION_R34_SE REUNION_R34_SW REUNION_R34_NW REUNION_R50_NE REUNION_R50_SE REUNION_R50_SW REUNION_R50_NW REUNION_R64_NE REUNION_R64_SE REUNION_R64_SW REUNION_R64_NW BOM_LAT BOM_LON BOM_TYPE BOM_WIND BOM_PRES BOM_TNUM BOM_CI BOM_RMW BOM_R34_NE BOM_R34_SE BOM_R34_SW BOM_R34_NW BOM_R50_NE BOM_R50_SE BOM_R50_SW BOM_R50_NW BOM_R64_NE BOM_R64_SE BOM_R64_SW BOM_R64_NW BOM_ROCI BOM_POCI BOM_EYE BOM_POS_METHOD BOM_PRES_METHOD NADI_LAT NADI_LON NADI_CAT NADI_WIND NADI_PRES WELLINGTON_LAT WELLINGTON_LON WELLINGTON_WIND WELLINGTON_PRES DS824_LAT DS824_LON DS824_STAGE DS824_WIND DS824_PRES TD9636_LAT TD9636_LON TD9636_STAGE TD9636_WIND TD9636_PRES TD9635_LAT TD9635_LON TD9635_WIND TD9635_PRES TD9635_ROCI NEUMANN_LAT NEUMANN_LON NEUMANN_CLASS NEUMANN_WIND NEUMANN_PRES MLC_LAT MLC_LON MLC_CLASS MLC_WIND MLC_PRES USA_GUST BOM_GUST BOM_GUST_PER REUNION_GUST REUNION_GUST_PER USA_SEAHGT USA_SEARAD_NE USA_SEARAD_SE USA_SEARAD_SW USA_SEARAD_NW STORM_SPEED STORM_DIR
1994241N14236 1994 73 EP MM KRISTY 1994-08-28 18:00:00 TS 14.4000 -123.600 25 1010 hurdat_epa main 1665 1665 O_____________ hurdat_epa EP131994 14.4000 -123.600 TD 25 1010 -1 16 272
1994241N14236 1994 73 EP MM KRISTY 1994-08-28 21:00:00 TS 14.4281 -124.410 main 1726 1726 P_____________ EP131994 14.4281 -124.410 TD 25 1010 -1 16 274
1994241N14236 1994 73 EP MM KRISTY 1994-08-29 00:00:00 TS 14.5000 -125.200 25 1010 hurdat_epa main 1781 1781 O_____________ hurdat_epa EP131994 14.5000 -125.200 TD 25 1010 -1 15 278
1994241N14236 1994 73 EP MM KRISTY 1994-08-29 03:00:00 TS 14.6422 -125.957 main 1838 1831 P_____________ EP131994 14.6422 -125.957 TD 25 1010 -1 15 282
1994241N14236 1994 73 EP MM KRISTY 1994-08-29 06:00:00 TS 14.8000 -126.700 25 1010 hurdat_epa main 1881 1881 O_____________ hurdat_epa EP131994 14.8000 -126.700 TD 25 1010 -1 15 280
1994241N14236 1994 73 EP MM KRISTY 1994-08-29 09:00:00 TS 14.8997 -127.443 main 1920 1920 P_____________ EP131994 14.8997 -127.443 TD 27 1009 -1 15 278
1994241N14236 1994 73 EP MM KRISTY 1994-08-29 12:00:00 TS 15.0000 -128.200 30 1009 hurdat_epa main 1967 1967 O_____________ hurdat_epa EP131994 15.0000 -128.200 TD 30 1009 -1 15 279
1994241N14236 1994 73 EP MM KRISTY 1994-08-29 15:00:00 TS 15.1345 -128.970 main 2017 2016 P_____________ EP131994 15.1345 -128.970 TD 30 1009 -1 16 281
1994241N14236 1994 73 EP MM KRISTY 1994-08-29 18:00:00 TS 15.3000 -129.800 30 1009 hurdat_epa main 2061 2061 O_____________ hurdat_epa EP131994 15.3000 -129.800 TD 30 1009 -1 18 282
1994241N14236 1994 73 EP MM KRISTY 1994-08-29 21:00:00 TS 15.5076 -130.742 main 2115 2115 P_____________ EP131994 15.5076 -130.742 TD 30 1008 -1 19 282
1994241N14236 1994 73 EP MM KRISTY 1994-08-30 00:00:00 TS 15.7000 -131.700 30 1008 hurdat_epa main 2180 2180 O_____________ hurdat_epa EP131994 15.7000 -131.700 TD 30 1008 -1 18 280
1994241N14236 1994 73 EP MM KRISTY 1994-08-30 03:00:00 TS 15.8146 -132.573 main 2247 2247 P_____________ EP131994 15.8146 -132.573 TD 32 1007 -1 16 277
1994241N14236 1994 73 EP MM KRISTY 1994-08-30 06:00:00 TS 15.9000 -133.400 35 1007 hurdat_epa main 2301 2215 O_____________ hurdat_epa EP131994 15.9000 -133.400 TS 35 1007 0 16 277
1994241N14236 1994 73 EP MM KRISTY 1994-08-30 09:00:00 TS 16.0146 -134.207 main 2215 2129 P_____________ EP131994 16.0146 -134.207 TS 35 1006 0 16 277
1994241N14236 1994 73 EP MM KRISTY 1994-08-30 12:00:00 TS 16.1000 -135.000 35 1005 hurdat_epa main 2129 2046 O_____________ hurdat_epa EP131994 16.1000 -135.000 TS 35 1005 0 15 274
1994241N14236 1994 73 EP MM KRISTY 1994-08-30 15:00:00 TS 16.1147 -135.800 main 2046 1963 P_____________ EP131994 16.1147 -135.800 TS 37 1003 0 15 270
1994241N14236 1994 73 EP MM KRISTY 1994-08-30 18:00:00 TS 16.1000 -136.600 40 1002 hurdat_epa main 1963 1880 O_____________ hurdat_epa EP131994 16.1000 -136.600 TS 40 1002 0 15 269
1994241N14236 1994 73 EP MM KRISTY 1994-08-30 21:00:00 TS 16.0922 -137.400 main 1880 1797 P_____________ EP131994 16.0922 -137.400 TS 45 999 0 15 270
1994241N14236 1994 73 EP MM KRISTY 1994-08-31 00:00:00 TS 16.1000 -138.200 50 996 hurdat_epa main 1797 1714 O_____________ hurdat_epa EP131994 16.1000 -138.200 TS 50 996 0 15 272
1994241N14236 1994 73 EP MM KRISTY 1994-08-31 03:00:00 TS 16.1423 -139.007 main 1714 1629 P_____________ EP131994 16.1423 -139.007 TS 55 994 0 15 274
1994241N14236 1994 73 EP MM KRISTY 1994-08-31 06:00:00 TS 16.2000 -139.800 60 992 hurdat_epa main 1629 1557 O_____________ hurdat_epa EP131994 16.2000 -139.800 TS 60 992 0 15 274
1994241N14236 1994 73 EP CP KRISTY 1994-08-31 09:00:00 TS 16.2498 -140.556 main 1547 1472 P_____________ EP131994 16.2497 -140.558 TS 62 0 14 274
1994241N14236 1994 73 EP CP KRISTY 1994-08-31 12:00:00 TS 16.3000 -141.300 65 hurdat_epa main 1472 1400 O_____________ hurdat_epa EP131994 16.3000 -141.300 HU 65 1 15 274
1994241N14236 1994 73 EP CP KRISTY 1994-08-31 15:00:00 TS 16.3499 -142.065 main 1390 1315 P_____________ EP131994 16.3499 -142.065 HU 75 1 14 274
1994241N14236 1994 73 EP CP KRISTY 1994-08-31 18:00:00 TS 16.4000 -142.800 85 hurdat_epa main 1315 1251 O_____________ hurdat_epa EP131994 16.4000 -142.800 HU 85 2 13 275
1994241N14236 1994 73 EP CP KRISTY 1994-08-31 21:00:00 TS 16.4570 -143.450 main 1251 1180 P_____________ EP131994 16.4570 -143.450 HU 87 2 13 275
1994241N14236 1994 73 EP CP KRISTY 1994-09-01 00:00:00 TS 16.5000 -144.100 90 hurdat_epa main 1180 1109 O_____________ hurdat_epa EP131994 16.5000 -144.100 HU 90 2 13 272
1994241N14236 1994 73 EP CP KRISTY 1994-09-01 03:00:00 TS 16.5075 -144.843 main 1109 1029 P_____________ EP131994 16.5075 -144.843 HU 90 2 14 270
1994241N14236 1994 73 EP CP KRISTY 1994-09-01 06:00:00 TS 16.5000 -145.600 90 hurdat_epa main 1029 959 O_____________ hurdat_epa EP131994 16.5000 -145.600 HU 90 2 14 270
1994241N14236 1994 73 EP CP KRISTY 1994-09-01 09:00:00 TS 16.5146 -146.300 main 959 890 P_____________ EP131994 16.5146 -146.300 HU 85 2 13 270
1994241N14236 1994 73 EP CP KRISTY 1994-09-01 12:00:00 TS 16.5000 -147.000 80 hurdat_epa main 890 827 O_____________ hurdat_epa EP131994 16.5000 -147.000 HU 80 1 14 266
1994241N14236 1994 73 EP CP KRISTY 1994-09-01 15:00:00 TS 16.4221 -147.728 main 827 756 P_____________ EP131994 16.4221 -147.728 HU 75 1 15 262
1994241N14236 1994 73 EP CP KRISTY 1994-09-01 18:00:00 TS 16.3000 -148.500 70 hurdat_epa main 756 689 O_____________ hurdat_epa EP131994 16.3000 -148.500 HU 70 1 16 261
1994241N14236 1994 73 EP CP KRISTY 1994-09-01 21:00:00 TS 16.1725 -149.350 main 689 625 P_____________ EP131994 16.1725 -149.350 HU 65 1 17 260
1994241N14236 1994 73 EP CP KRISTY 1994-09-02 00:00:00 TS 16.0000 -150.200 60 hurdat_epa main 625 584 O_____________ hurdat_epa EP131994 16.0000 -150.200 TS 60 0 16 255
1994241N14236 1994 73 EP CP KRISTY 1994-09-02 03:00:00 TS 15.7646 -150.965 main 577 550 P_____________ EP131994 15.7646 -150.965 TS 55 0 15 251
1994241N14236 1994 73 EP CP KRISTY 1994-09-02 06:00:00 TS 15.5000 -151.700 50 hurdat_epa main 550 531 O_____________ hurdat_epa EP131994 15.5000 -151.700 TS 50 0 15 249
1994241N14236 1994 73 EP CP KRISTY 1994-09-02 09:00:00 TS 15.2198 -152.450 main 530 511 P_____________ EP131994 15.2198 -152.450 TS 45 0 15 251
1994241N14236 1994 73 EP CP KRISTY 1994-09-02 12:00:00 TS 15.0000 -153.200 40 hurdat_epa main 511 486 O_____________ hurdat_epa EP131994 15.0000 -153.200 TS 40 0 15 258
1994241N14236 1994 73 EP CP KRISTY 1994-09-02 15:00:00 TS 14.9198 -153.950 main 486 460 P_____________ EP131994 14.9198 -153.950 TS 37 0 15 266
1994241N14236 1994 73 EP CP KRISTY 1994-09-02 18:00:00 TS 14.9000 -154.700 35 hurdat_epa main 460 449 O_____________ hurdat_epa EP131994 14.9000 -154.700 TS 35 0 15 267
1994241N14236 1994 73 EP CP KRISTY 1994-09-02 21:00:00 TS 14.8423 -155.458 main 459 458 P_____________ EP131994 14.8423 -155.458 TS 35 0 15 266
1994241N14236 1994 73 EP CP KRISTY 1994-09-03 00:00:00 TS 14.8000 -156.200 35 hurdat_epa main 461 461 O_____________ hurdat_epa EP131994 14.8000 -156.200 TS 35 0 14 268
1994241N14236 1994 73 EP CP KRISTY 1994-09-03 03:00:00 TS 14.7923 -156.915 main 476 476 P_____________ EP131994 14.7923 -156.915 TS 35 0 14 270
1994241N14236 1994 73 EP CP KRISTY 1994-09-03 06:00:00 TS 14.8000 -157.600 35 hurdat_epa main 501 501 O_____________ hurdat_epa EP131994 14.8000 -157.600 TS 35 0 13 270
1994241N14236 1994 73 EP CP KRISTY 1994-09-03 09:00:00 TS 14.7999 -158.272 main 535 535 P_____________ EP131994 14.7999 -158.272 TS 35 0 13 270
1994241N14236 1994 73 EP CP KRISTY 1994-09-03 12:00:00 TS 14.8000 -158.900 35 hurdat_epa main 571 571 O_____________ hurdat_epa EP131994 14.8000 -158.900 TS 35 0 12 270
1994241N14236 1994 73 EP CP KRISTY 1994-09-03 15:00:00 TS 14.8073 -159.465 main 611 611 P_____________ EP131994 14.8073 -159.465 TS 32 -1 11 270
1994241N14236 1994 73 EP CP KRISTY 1994-09-03 18:00:00 TS 14.8000 -160.000 30 hurdat_epa main 648 648 O_____________ hurdat_epa EP131994 14.8000 -160.000 TD 30 -1 11 267
1994241N14236 1994 73 EP CP KRISTY 1994-09-03 21:00:00 TS 14.7575 -160.565 main 693 693 P_____________ EP131994 14.7575 -160.565 TD 30 -1 11 265
1994241N14236 1994 73 EP CP KRISTY 1994-09-04 00:00:00 TS 14.7000 -161.100 30 hurdat_epa main 740 740 O_____________ hurdat_epa EP131994 14.7000 -161.100 TD 30 -1 10 264
1994241N14236 1994 73 EP CP KRISTY 1994-09-04 03:00:00 TS 14.6499 -161.572 main 788 788 P_____________ EP131994 14.6499 -161.572 TD 30 -1 9 263
1994241N14236 1994 73 EP CP KRISTY 1994-09-04 06:00:00 TS 14.6000 -162.000 30 hurdat_epa main 821 821 O_____________ hurdat_epa EP131994 14.6000 -162.000 TD 30 -1 8 263
1994241N14236 1994 73 EP CP KRISTY 1994-09-04 09:00:00 TS 14.5425 -162.423 main 862 862 P_____________ EP131994 14.5425 -162.423 TD 30 -1 8 263
1994241N14236 1994 73 EP CP KRISTY 1994-09-04 12:00:00 TS 14.5000 -162.800 30 hurdat_epa main 896 896 O_____________ hurdat_epa EP131994 14.5000 -162.800 TD 30 -1 7 266
1994241N14236 1994 73 EP CP KRISTY 1994-09-04 15:00:00 TS 14.4924 -163.115 main 908 908 P_____________ EP131994 14.4924 -163.115 TD 30 -1 6 270
1994241N14236 1994 73 EP CP KRISTY 1994-09-04 18:00:00 TS 14.5000 -163.400 30 hurdat_epa main 921 921 O_____________ hurdat_epa EP131994 14.5000 -163.400 TD 30 -1 6 271
1994241N14236 1994 73 EP CP KRISTY 1994-09-04 21:00:00 TS 14.5026 -163.695 main 934 934 P_____________ EP131994 14.5026 -163.695 TD 27 -1 6 270
1994241N14236 1994 73 EP CP KRISTY 1994-09-05 00:00:00 TS 14.5000 -164.000 25 hurdat_epa main 948 O_____________ hurdat_epa EP131994 14.5000 -164.000 TD 25 -1 6 269

IBTrACS Databaseについて

本データベースは、米国NOAAが公開する1842年以降の世界の熱帯低気圧のベストトラックデータアーカイブInternational Best Track Archive for Climate Stewardship (IBTrACS)を、ウェブで閲覧しやすい形式に変換したものです。

最終更新日:2021-12-06